Nearby METAR Reports

 

KPAE - Everett, Washington, USA
Distance from station: NW 15mi, 25km
Updated: 04/19/2019 7:07am
Light rain, Overcast
Light rain, Overcast
 Wind from S
Wind: S 7 mph , 11 km/h
Temperature: 52°F , 11°C
Dew Point: 52°F , 11°C
Humidity: 100%
Barometer: 30.00 inHg , 1015.9 hPa
Summary: Light rain
Clouds: Overcast
Visibility: 10 miles , 16 km
Cloud details: Few Clouds 800 ft
Mostly cloudy 1600 ft
Overcast 8500 ft
2019/04/19 14:07 KPAE 191407Z 18006KT 10SM -RA FEW008 BKN016 OVC085 11/11 A3000 RMK AO2 P0000 T01110106
KBFI - Seattle/Boeing, Washington, USA
Distance from station: SW 20mi, 31km
Updated: 04/19/2019 6:53am
Light rain, Overcast
Light rain, Overcast
 Wind from SE
Wind: SE 9 mph , 15 km/h
Temperature: 54°F , 12°C
Dew Point: 50°F , 10°C
Humidity: 88%
Barometer: 29.99 inHg , 1015.6 hPa
Summary: Light rain
Clouds: Overcast
Visibility: 10 miles , 16 km
Cloud details: Partly cloudy 1000 ft
Mostly cloudy 2000 ft
Overcast 5000 ft
2019/04/19 13:53 KBFI 191353Z 13008KT 10SM -RA SCT010 BKN020 OVC050 12/10 A2999 RMK AO2 SLP155 P0001 T01220100
KSEA - Seattle/Metro, Washington, USA
Distance from station: SSW 25mi, 41km
Updated: 04/19/2019 6:53am
Light rain, Overcast
Light rain, Overcast
 Wind from SSW
Wind: SSW 12 mph , 19 km/h
Temperature: 54°F , 12°C
Dew Point: 50°F , 10°C
Humidity: 88%
Barometer: 29.99 inHg , 1015.6 hPa
Summary: Light rain
Clouds: Overcast
Visibility: 9 miles , 14 km
Cloud details: Few Clouds 500 ft
Mostly cloudy 7000 ft
Overcast 8500 ft
2019/04/19 13:53 KSEA 191353Z 20010KT 9SM -RA FEW005 BKN070 OVC085 12/10 A2999 RMK AO2 SLP161 P0002 T01170100
 
KAWO - Arlington Muni, Washington, USA
Distance from station: NNW 28mi, 46km
Updated: 04/19/2019 6:56am
Light rain, Overcast
Light rain, Overcast
 Wind from calm
Wind: Calm
Temperature: 54°F , 12°C
Dew Point: 52°F , 11°C
Humidity: 94%
Barometer: 29.98 inHg , 1015.2 hPa
Summary: Light rain
Clouds: Overcast
Visibility: 10 miles , 16 km
Cloud details: Mostly cloudy 1200 ft
Overcast 1800 ft
2019/04/19 13:56 KAWO 191356Z AUTO 00000KT 10SM -RA BKN012 OVC018 12/11 A2998 RMK AO2 SLP154 P0001 T01170111 $
KPWT - Bremerton Ntnl, Washington, USA
Distance from station: WSW 38mi, 61km
Updated: 04/19/2019 6:56am
Few Clouds
Few Clouds
 Wind from SSW
Wind: SSW 13 mph , 20 km/h
Temperature: 52°F , 11°C
Dew Point: 50°F , 10°C
Humidity: 94%
Barometer: 29.99 inHg , 1015.6 hPa
Clouds: Few Clouds
Visibility: 10 miles , 16 km
Cloud details: Few Clouds 9000 ft
2019/04/19 13:56 KPWT 191356Z AUTO 21011KT 10SM FEW090 11/10 A2999 RMK AO2 RAB04E47 SLP172 P0000 T01060100
KTIW - Tacoma, Washington, USA
Distance from station: SW 43mi, 69km
Updated: 04/19/2019 6:53am
Overcast
Overcast
 Wind from WSW
Wind: WSW 5 mph , 7 km/h
Temperature: 52°F , 11°C
Dew Point: 50°F , 10°C
Humidity: 94%
Barometer: 30.01 inHg , 1016.3 hPa
Clouds: Overcast
Visibility: 10 miles , 16 km
Cloud details: Overcast 800 ft
2019/04/19 13:53 KTIW 191353Z AUTO 24004KT 10SM OVC008 11/10 A3001 RMK AO2 RAE34 SLP162 P0000 T01110100
 
KPLU - Puyallup/Thun, Washington, USA
Distance from station: SSW 47mi, 76km
Updated: 04/19/2019 6:55am
Light drizzle, Overcast
Light drizzle, Overcast
 Wind from calm
Wind: Calm
Temperature: 54°F , 12°C
Dew Point: 54°F , 12°C
Humidity: 100%
Barometer: 30.02 inHg , 1016.6 hPa
Summary: Light Drizzle
Clouds: Overcast
Visibility: 6 miles , 10 km
Cloud details: Mostly cloudy 400 ft
Mostly cloudy 900 ft
Overcast 4700 ft
2019/04/19 13:55 KPLU 191355Z AUTO 00000KT 6SM -DZ BKN004 BKN009 OVC047 12/12 A3002 RMK AO2
KSMP - Stampede Pass, Washington, USA
Distance from station: SE 47mi, 76km
Updated: 04/19/2019 7:11am
Fog, Overcast
Fog, Overcast
 Wind from WNW
Wind: WNW 8 mph , 13 km/h
Temperature: 45°F , 7°C
Wind Chill: 41°F , 5°C
Dew Point: 43°F , 6°C
Humidity: 93%
Barometer: 29.98 inHg , 1015.2 hPa
Summary: Fog
Clouds: Overcast
Visibility: 1/4 mile , 0.4 km
Cloud details: Overcast 200 ft
2019/04/19 14:11 KSMP 191411Z AUTO 29007KT 250V320 1/4SM FG VV002 07/06 A2998 RMK AO2 T00720056
KNUW - Whidbey Is. Nas, Washington, USA
Distance from station: NW 49mi, 79km
Updated: 04/19/2019 6:56am
Mist, Overcast
Mist, Overcast
 Wind from SW
Wind: SW 3 mph , 6 km/h
Temperature: 54°F , 12°C
Dew Point: 52°F , 11°C
Humidity: 94%
Barometer: 30.02 inHg , 1016.6 hPa
Summary: Mist
Clouds: Overcast
Visibility: 1 mile , 2 km
Cloud details: Overcast 500 ft
2019/04/19 13:56 KNUW 191356Z 22003KT 1SM BR OVC005 12/11 A3002 RMK AO2 SFC VIS 3 SLP164 T01220106 $
 
KBVS - Burlington/Mt V, Washington, USA
Distance from station: NNW 51mi, 83km
Updated: 04/19/2019 7:15am
Mist, Overcast
Mist, Overcast
 Wind from S
Wind: S 5 mph , 7 km/h
Temperature: 52°F , 11°C
Dew Point: 52°F , 11°C
Humidity: 100%
Barometer: 29.98 inHg , 1015.2 hPa
Summary: Mist
Clouds: Overcast
Visibility: 2 miles , 3 km
Cloud details: Overcast 300 ft
2019/04/19 14:15 KBVS 191415Z AUTO 18004KT 2SM BR OVC003 11/11 A2998 RMK A01
KSHN - Shelton, Washington, USA
Distance from station: SW 63mi, 101km
Updated: 04/19/2019 6:53am
Overcast
Overcast
 Wind from SW
Wind: SW 8 mph , 13 km/h
Temperature: 52°F , 11°C
Dew Point: 50°F , 10°C
Humidity: 94%
Barometer: 29.98 inHg , 1015.2 hPa
Clouds: Overcast
Visibility: 10 miles , 16 km
Cloud details: Mostly cloudy 700 ft
Overcast 1700 ft
2019/04/19 13:53 KSHN 191353Z AUTO 23007KT 10SM BKN007 OVC017 11/10 A2998 RMK AO2 RAB1255E08B25E51 SLP155 P0000 T01110100
KOLM - Olympia, Washington, USA
Distance from station: SW 68mi, 110km
Updated: 04/19/2019 6:54am
Overcast
Overcast
 Wind from S
Wind: S 7 mph , 11 km/h
Temperature: 54°F , 12°C
Dew Point: 50°F , 10°C
Humidity: 88%
Barometer: 30.00 inHg , 1015.9 hPa
Clouds: Overcast
Visibility: 10 miles , 16 km
Cloud details: Overcast 7500 ft
2019/04/19 13:54 KOLM 191354Z AUTO 19006KT 10SM OVC075 12/10 A3000 RMK AO2 RAB12E33 SLP160 P0000 T01170100
 
KCLM - Port Angeles, Washington, USA
Distance from station: WNW 72mi, 115km
Updated: 04/19/2019 7:14am
Mist, Overcast
Mist, Overcast
 Wind from varies
Wind: varies 6 mph , 9 km/h
Temperature: 50°F , 10°C
Wind Chill: 48°F , 9°C
Dew Point: 48°F , 9°C
Humidity: 94%
Barometer: 29.99 inHg , 1015.6 hPa
Summary: Mist
Clouds: Overcast
Visibility: 3 miles , 5 km
Cloud details: Overcast 200 ft
2019/04/19 14:14 KCLM 191414Z AUTO VRB05KT 3SM BR OVC002 10/09 A2999 RMK AO2 T01000094
CWYJ - Victoria Univ, British Columbia, Canada
Distance from station: NW 75mi, 121km
Updated: 04/19/2019 7:00am

 Wind from SW
Wind: SW 1 mph , 2 km/h
Temperature: 50°F , 10°C
Dew Point: 50°F , 10°C
Humidity: 100%
2019/04/19 14:00 CWYJ 191400Z AUTO 23001KT 10/10 RMK AO1 SLP149 T00980095 55000
KBLI - Bellingham, Washington, USA
Distance from station: NNW 75mi, 121km
Updated: 04/19/2019 7:13am
Mist, Overcast
Mist, Overcast
 Wind from S
Wind: S 8 mph , 13 km/h
Temperature: 52°F , 11°C
Dew Point: 50°F , 10°C
Humidity: 94%
Barometer: 29.96 inHg , 1014.6 hPa
Summary: Mist
Clouds: Overcast
Visibility: 2 miles , 3 km
Cloud details: Mostly cloudy 200 ft
Overcast 1500 ft
2019/04/19 14:13 KBLI 191413Z 17007KT 2SM BR BKN002 OVC015 11/10 A2996 RMK AO2 RAE06 P0000 T01110100